createdAt,value
2019-01-31T00:00:44.678Z,-2.10
2019-01-31T00:03:42.761Z,-2.00
2019-01-31T00:06:41.780Z,-2.10
2019-01-31T00:09:43.536Z,-2.20
2019-01-31T00:12:43.581Z,-2.20
2019-01-31T00:15:54.689Z,-2.20
2019-01-31T00:18:42.760Z,-2.10
2019-01-31T00:22:07.522Z,-1.90
2019-01-31T00:25:04.163Z,-1.90
2019-01-31T00:28:19.978Z,-1.90
2019-01-31T00:31:34.888Z,-2.00
2019-01-31T00:34:33.580Z,-1.90
2019-01-31T00:37:57.008Z,-1.90
2019-01-31T00:40:43.327Z,-1.90
2019-01-31T00:43:47.347Z,-2.00
2019-01-31T00:47:04.285Z,-2.00
2019-01-31T00:50:00.700Z,-1.90
2019-01-31T00:53:11.725Z,-1.90
2019-01-31T00:55:56.559Z,-1.90
2019-01-31T00:59:14.999Z,-2.00
2019-01-31T01:02:33.973Z,-1.90
2019-01-31T01:05:37.303Z,-1.90
2019-01-31T01:08:31.707Z,-1.90
2019-01-31T01:11:41.511Z,-1.80
2019-01-31T01:15:05.974Z,-1.80
2019-01-31T01:18:02.921Z,-1.80
2019-01-31T01:21:07.233Z,-1.80
2019-01-31T01:24:09.691Z,-1.80
2019-01-31T01:27:28.621Z,-1.80
2019-01-31T01:30:08.397Z,-1.80
2019-01-31T01:33:07.934Z,-1.80
2019-01-31T01:36:16.311Z,-1.80
2019-01-31T01:39:22.972Z,-1.80
2019-01-31T01:42:16.622Z,-1.70
2019-01-31T01:45:32.201Z,-1.70
2019-01-31T01:48:13.324Z,-1.70
2019-01-31T01:51:30.022Z,-1.70
2019-01-31T01:54:24.869Z,-1.60
2019-01-31T01:57:32.364Z,-1.70
2019-01-31T02:00:20.208Z,-1.80
2019-01-31T02:03:13.791Z,-1.70
2019-01-31T02:06:02.518Z,-1.70
2019-01-31T02:09:18.109Z,-1.60
2019-01-31T02:12:30.154Z,-1.60
2019-01-31T02:15:57.958Z,-1.70
2019-01-31T02:18:54.468Z,-1.70
2019-01-31T02:22:04.633Z,-1.80
2019-01-31T02:24:44.368Z,-1.70
2019-01-31T02:27:38.736Z,-1.70
2019-01-31T02:30:37.536Z,-1.70
2019-01-31T02:33:46.145Z,-1.70
2019-01-31T02:36:56.402Z,-1.80
2019-01-31T02:40:05.815Z,-1.80
2019-01-31T02:43:05.466Z,-1.80
2019-01-31T02:46:26.171Z,-1.80
2019-01-31T02:49:38.774Z,-1.70
2019-01-31T02:52:50.778Z,-1.60
2019-01-31T02:56:22.030Z,-1.60
2019-01-31T02:59:10.446Z,-1.60
2019-01-31T03:02:13.902Z,-1.60
2019-01-31T03:05:33.598Z,-1.60
2019-01-31T03:08:21.919Z,-1.60
2019-01-31T03:11:24.604Z,-1.50
2019-01-31T03:14:13.353Z,-1.50
2019-01-31T03:17:31.141Z,-1.50
2019-01-31T03:20:13.178Z,-1.50
2019-01-31T03:23:27.887Z,-1.50
2019-01-31T03:26:51.802Z,-1.50
2019-01-31T03:30:06.950Z,-1.50
2019-01-31T03:33:20.853Z,-1.40
2019-01-31T03:36:20.657Z,-1.40
2019-01-31T03:39:37.701Z,-1.40
2019-01-31T03:42:38.920Z,-1.40
2019-01-31T03:45:51.861Z,-1.40
2019-01-31T03:48:57.626Z,-1.30
2019-01-31T03:52:28.462Z,-1.30
2019-01-31T03:55:22.659Z,-1.20
2019-01-31T03:58:09.788Z,-1.20
2019-01-31T04:01:13.819Z,-1.20
2019-01-31T04:03:59.778Z,-1.20
2019-01-31T04:06:34.635Z,-1.20
2019-01-31T04:09:09.591Z,-1.20
2019-01-31T04:11:41.196Z,-1.20
2019-01-31T04:14:13.080Z,-1.20
2019-01-31T04:16:45.702Z,-1.20
2019-01-31T04:19:17.640Z,-1.20
2019-01-31T04:21:49.232Z,-1.20
2019-01-31T04:24:20.980Z,-1.20
2019-01-31T04:26:53.211Z,-1.20
2019-01-31T04:29:24.814Z,-1.20
2019-01-31T04:31:56.325Z,-1.20
2019-01-31T04:34:27.665Z,-1.20
2019-01-31T04:36:59.508Z,-1.20
2019-01-31T04:39:32.058Z,-1.20
2019-01-31T04:42:04.451Z,-1.10
2019-01-31T04:44:36.190Z,-1.10
2019-01-31T04:47:08.650Z,-1.10
2019-01-31T04:49:40.158Z,-1.20
2019-01-31T04:52:12.157Z,-1.10
2019-01-31T04:54:45.396Z,-1.10
2019-01-31T04:57:18.380Z,-1.20
2019-01-31T04:59:50.078Z,-1.20
2019-01-31T05:02:22.486Z,-1.10
2019-01-31T05:04:54.058Z,-1.20
2019-01-31T05:07:25.579Z,-1.20
2019-01-31T05:09:57.509Z,-1.30
2019-01-31T05:12:29.116Z,-1.20
2019-01-31T05:15:00.836Z,-1.30
2019-01-31T05:17:32.421Z,-1.30
2019-01-31T05:20:05.572Z,-1.40
2019-01-31T05:22:37.054Z,-1.30
2019-01-31T05:25:10.496Z,-1.30
2019-01-31T05:27:43.472Z,-1.30
2019-01-31T05:30:16.165Z,-1.30
2019-01-31T05:32:48.110Z,-1.40
2019-01-31T05:35:20.050Z,-1.40
2019-01-31T05:37:51.948Z,-1.30
2019-01-31T05:40:23.575Z,-1.30
2019-01-31T05:42:55.318Z,-1.40
2019-01-31T05:45:26.922Z,-1.40
2019-01-31T05:47:58.275Z,-1.30
2019-01-31T05:50:29.836Z,-1.30
2019-01-31T05:53:02.298Z,-1.30
2019-01-31T05:55:33.772Z,-1.30
2019-01-31T05:58:05.304Z,-1.30
2019-01-31T06:00:38.994Z,-1.20
2019-01-31T06:03:11.339Z,-1.20
2019-01-31T06:05:42.816Z,-1.30
2019-01-31T06:08:14.741Z,-1.30
2019-01-31T06:10:48.071Z,-1.30
2019-01-31T06:13:19.780Z,-1.30
2019-01-31T06:15:51.383Z,-1.40
2019-01-31T06:18:22.875Z,-1.40
2019-01-31T06:20:54.660Z,-1.40
2019-01-31T06:23:26.421Z,-1.50
2019-01-31T06:25:58.421Z,-1.60
2019-01-31T06:28:30.991Z,-1.60
2019-01-31T06:31:02.481Z,-1.60
2019-01-31T06:33:34.396Z,-1.60
2019-01-31T06:36:05.929Z,-1.50
2019-01-31T06:38:37.387Z,-1.70
2019-01-31T06:41:18.376Z,-1.80
2019-01-31T06:43:44.584Z,-1.80
2019-01-31T06:46:15.996Z,-1.80
2019-01-31T06:48:47.387Z,-2.00
2019-01-31T06:51:20.738Z,-2.10
2019-01-31T06:53:52.088Z,-2.10
2019-01-31T06:56:23.768Z,-2.10
2019-01-31T06:58:55.564Z,-2.10
2019-01-31T07:01:27.123Z,-2.20
2019-01-31T07:03:59.330Z,-2.30
2019-01-31T07:06:30.867Z,-2.20
2019-01-31T07:09:04.005Z,-2.30
2019-01-31T07:11:36.738Z,-2.30
2019-01-31T07:14:08.289Z,-2.40
2019-01-31T07:16:40.162Z,-2.50
2019-01-31T07:19:13.062Z,-2.50
2019-01-31T07:21:44.796Z,-2.50
2019-01-31T07:24:18.417Z,-2.40
2019-01-31T07:26:50.080Z,-2.50
2019-01-31T07:29:22.608Z,-2.60
2019-01-31T07:31:54.357Z,-2.70
2019-01-31T07:34:25.982Z,-2.80
2019-01-31T07:36:59.951Z,-2.80
2019-01-31T07:39:32.369Z,-2.90
2019-01-31T07:42:04.159Z,-3.00
2019-01-31T07:44:35.683Z,-2.90
2019-01-31T07:47:07.814Z,-2.90
2019-01-31T07:49:42.949Z,-2.80
2019-01-31T07:52:14.641Z,-2.80
2019-01-31T07:54:46.552Z,-2.80
2019-01-31T07:57:19.564Z,-2.80
2019-01-31T07:59:51.376Z,-2.70
2019-01-31T08:02:23.129Z,-2.70
2019-01-31T08:04:54.706Z,-2.80
2019-01-31T08:07:28.739Z,-2.70
2019-01-31T08:09:59.637Z,-2.70
2019-01-31T08:12:34.578Z,-2.70
2019-01-31T08:15:07.850Z,-2.70
2019-01-31T08:17:40.764Z,-2.70
2019-01-31T08:20:14.343Z,-2.60
2019-01-31T08:22:47.435Z,-2.50
2019-01-31T08:25:20.404Z,-2.40
2019-01-31T08:27:53.016Z,-2.30
2019-01-31T08:30:26.831Z,-2.40
2019-01-31T08:32:58.608Z,-2.50
2019-01-31T08:35:31.076Z,-2.60
2019-01-31T08:38:06.069Z,-2.50
2019-01-31T08:40:37.784Z,-2.40
2019-01-31T08:43:11.195Z,-2.30
2019-01-31T08:45:42.887Z,-2.30
2019-01-31T08:48:16.111Z,-2.30
2019-01-31T08:50:47.854Z,-2.40
2019-01-31T08:53:20.195Z,-2.40
2019-01-31T08:55:51.946Z,-2.40
2019-01-31T08:58:24.068Z,-2.40
2019-01-31T09:00:55.549Z,-2.30
2019-01-31T09:03:27.351Z,-2.30
2019-01-31T09:05:58.834Z,-2.30
2019-01-31T09:08:31.508Z,-2.30
2019-01-31T09:11:04.555Z,-2.30
2019-01-31T09:13:38.282Z,-2.20
2019-01-31T09:16:10.959Z,-2.20
2019-01-31T09:18:42.484Z,-2.10
2019-01-31T09:21:38.015Z,-2.00
2019-01-31T09:24:41.635Z,-1.90
2019-01-31T09:27:51.352Z,-1.80
2019-01-31T09:31:00.034Z,-1.70
2019-01-31T09:34:09.989Z,-1.70
2019-01-31T09:37:31.244Z,-1.60
2019-01-31T09:40:32.535Z,-1.60
2019-01-31T09:43:26.458Z,-1.70
2019-01-31T09:46:09.297Z,-1.70
2019-01-31T09:49:21.928Z,-1.70
2019-01-31T09:52:46.347Z,-1.70
2019-01-31T09:56:13.400Z,-1.60
2019-01-31T09:58:56.334Z,-1.50
2019-01-31T10:02:11.434Z,-1.50
2019-01-31T10:04:57.632Z,-1.40
2019-01-31T10:07:58.050Z,-1.30
2019-01-31T10:11:03.673Z,-1.40
2019-01-31T10:14:22.467Z,-1.30
2019-01-31T10:17:56.442Z,-1.30
2019-01-31T10:21:02.186Z,-1.20
2019-01-31T10:24:08.476Z,-1.10
2019-01-31T10:27:00.868Z,-1.10
2019-01-31T10:29:53.040Z,-1.10
2019-01-31T10:32:37.709Z,-1.00
2019-01-31T10:35:49.501Z,-1.00
2019-01-31T10:39:08.140Z,-1.10
2019-01-31T10:42:36.024Z,-1.00
2019-01-31T10:45:38.162Z,-1.20
2019-01-31T10:48:44.249Z,-1.10
2019-01-31T10:52:18.418Z,-1.00
2019-01-31T10:55:22.695Z,-0.90
2019-01-31T10:58:31.167Z,-0.80
2019-01-31T11:01:22.468Z,-0.70
2019-01-31T11:04:22.084Z,-0.60
2019-01-31T11:07:41.356Z,-0.40
2019-01-31T11:10:38.592Z,-0.40
2019-01-31T11:14:15.867Z,-0.40
2019-01-31T11:17:03.010Z,-0.60
2019-01-31T11:20:18.253Z,-0.70
2019-01-31T11:23:59.475Z,-0.80
2019-01-31T11:27:26.689Z,-0.80
2019-01-31T11:31:00.997Z,-0.80
2019-01-31T11:34:09.457Z,-0.70
2019-01-31T11:37:01.467Z,-0.60
2019-01-31T11:40:11.295Z,-0.60
2019-01-31T11:43:11.926Z,-0.40
2019-01-31T11:46:05.607Z,-0.50
2019-01-31T11:49:17.308Z,-0.40
2019-01-31T11:52:42.157Z,-0.20
2019-01-31T11:55:41.580Z,-0.20
2019-01-31T11:58:48.335Z,-0.10
2019-01-31T12:01:19.893Z,0.00
2019-01-31T12:03:54.482Z,0.10
2019-01-31T12:06:27.048Z,0.00
2019-01-31T12:09:00.431Z,0.10
2019-01-31T12:11:32.271Z,0.10
2019-01-31T12:14:03.828Z,0.10
2019-01-31T12:16:35.546Z,0.00
2019-01-31T12:19:07.626Z,0.10
2019-01-31T12:21:39.144Z,0.10
2019-01-31T12:24:16.567Z,0.00
2019-01-31T12:26:44.381Z,0.10
2019-01-31T12:29:16.656Z,0.10
2019-01-31T12:31:48.790Z,0.10
2019-01-31T12:34:20.409Z,0.00
2019-01-31T12:36:52.294Z,0.00
2019-01-31T12:39:23.738Z,0.00
2019-01-31T12:41:55.328Z,-0.10
2019-01-31T12:44:26.935Z,-0.10
2019-01-31T12:46:59.994Z,-0.20
2019-01-31T12:49:32.220Z,-0.10
2019-01-31T12:52:04.377Z,-0.10
2019-01-31T12:54:36.636Z,0.00
2019-01-31T12:57:08.772Z,0.00
2019-01-31T12:59:40.630Z,0.10
2019-01-31T13:02:13.873Z,0.10
2019-01-31T13:04:45.498Z,0.10
2019-01-31T13:07:17.655Z,0.00
2019-01-31T13:09:49.545Z,0.10
2019-01-31T13:12:21.403Z,0.10
2019-01-31T13:14:53.055Z,0.20
2019-01-31T13:17:24.824Z,0.20
2019-01-31T13:19:58.056Z,0.20
2019-01-31T13:22:30.264Z,0.20
2019-01-31T13:25:02.176Z,0.30
2019-01-31T13:27:35.202Z,0.30
2019-01-31T13:30:07.929Z,0.20
2019-01-31T13:32:41.088Z,0.20
2019-01-31T13:35:13.037Z,0.20
2019-01-31T13:37:44.834Z,0.30
2019-01-31T13:40:19.285Z,0.30
2019-01-31T13:42:51.779Z,0.30
2019-01-31T13:45:26.197Z,0.30
2019-01-31T13:47:59.705Z,0.30
2019-01-31T13:50:31.464Z,0.20
2019-01-31T13:53:03.532Z,0.20
2019-01-31T13:55:35.417Z,0.20
2019-01-31T13:58:10.119Z,0.20
2019-01-31T14:00:41.095Z,0.30
2019-01-31T14:03:14.601Z,0.20
2019-01-31T14:05:46.437Z,0.20
2019-01-31T14:08:19.193Z,0.10
2019-01-31T14:10:50.725Z,0.00
2019-01-31T14:13:22.301Z,0.00
2019-01-31T14:15:54.122Z,0.00
2019-01-31T14:18:27.571Z,0.00
2019-01-31T14:20:59.207Z,-0.10
2019-01-31T14:23:33.557Z,-0.10
2019-01-31T14:26:05.205Z,-0.10
2019-01-31T14:28:38.913Z,-0.20
2019-01-31T14:31:10.676Z,-0.20
2019-01-31T14:33:42.381Z,-0.20
2019-01-31T14:36:13.989Z,-0.10
2019-01-31T14:38:46.059Z,-0.10
2019-01-31T14:41:17.830Z,-0.30
2019-01-31T14:43:49.636Z,-0.30
2019-01-31T14:46:23.345Z,-0.40
2019-01-31T14:48:54.907Z,-0.50
2019-01-31T14:51:27.900Z,-0.40
2019-01-31T14:53:59.494Z,-0.30
2019-01-31T14:56:32.627Z,-0.30
2019-01-31T14:59:04.520Z,-0.30
2019-01-31T15:01:36.542Z,-0.30
2019-01-31T15:04:09.683Z,-0.30
2019-01-31T15:06:42.947Z,-0.50
2019-01-31T15:09:16.937Z,-0.60
2019-01-31T15:11:48.921Z,-0.70
2019-01-31T15:14:31.210Z,-0.70
2019-01-31T15:16:54.122Z,-0.70
2019-01-31T15:19:26.040Z,-0.80
2019-01-31T15:21:57.919Z,-0.80
2019-01-31T15:24:29.644Z,-0.60
2019-01-31T15:27:01.025Z,-0.60
2019-01-31T15:29:32.957Z,-0.70
2019-01-31T15:32:04.663Z,-0.70
2019-01-31T15:34:36.284Z,-0.70
2019-01-31T15:37:07.806Z,-0.70
2019-01-31T15:39:40.352Z,-0.70
2019-01-31T15:42:12.372Z,-0.70
2019-01-31T15:44:43.956Z,-0.70
2019-01-31T15:47:17.473Z,-0.60
2019-01-31T15:49:48.997Z,-0.60
2019-01-31T15:52:21.239Z,-0.60
2019-01-31T15:54:52.796Z,-0.60
2019-01-31T15:57:25.819Z,-0.60
2019-01-31T15:59:58.309Z,-0.70
2019-01-31T16:02:30.241Z,-0.60
2019-01-31T16:05:03.483Z,-0.60
2019-01-31T16:07:36.392Z,-0.60
2019-01-31T16:10:08.424Z,-0.60
2019-01-31T16:12:41.042Z,-0.60
2019-01-31T16:15:13.856Z,-0.60
2019-01-31T16:17:45.638Z,-0.60
2019-01-31T16:20:17.244Z,-0.60
2019-01-31T16:22:49.064Z,-0.60
2019-01-31T16:25:20.862Z,-0.60
2019-01-31T16:27:52.370Z,-0.60
2019-01-31T16:30:24.516Z,-0.50
2019-01-31T16:32:56.248Z,-0.50
2019-01-31T16:35:29.503Z,-0.50
2019-01-31T16:38:01.891Z,-0.50
2019-01-31T16:40:33.688Z,-0.40
2019-01-31T16:43:07.060Z,-0.50
2019-01-31T16:45:38.813Z,-0.60
2019-01-31T16:48:12.143Z,-0.70
2019-01-31T16:50:44.042Z,-0.70
2019-01-31T16:53:15.722Z,-0.80
2019-01-31T16:55:47.572Z,-0.90
2019-01-31T16:58:20.315Z,-0.90
2019-01-31T17:00:52.257Z,-0.90
2019-01-31T17:03:23.838Z,-0.90
2019-01-31T17:05:55.556Z,-0.90
2019-01-31T17:08:27.117Z,-1.00
2019-01-31T17:10:58.760Z,-1.00
2019-01-31T17:13:33.222Z,-1.00
2019-01-31T17:16:05.445Z,-1.00
2019-01-31T17:18:37.365Z,-1.10
2019-01-31T17:21:09.413Z,-1.10
2019-01-31T17:23:41.182Z,-1.10
2019-01-31T17:26:12.801Z,-1.20
2019-01-31T17:28:44.779Z,-1.20
2019-01-31T17:31:16.178Z,-1.30
2019-01-31T17:33:47.657Z,-1.30
2019-01-31T17:36:19.146Z,-1.20
2019-01-31T17:38:51.046Z,-1.30
2019-01-31T17:41:22.412Z,-1.20
2019-01-31T17:43:54.265Z,-1.20
2019-01-31T17:46:26.114Z,-1.20
2019-01-31T17:48:57.797Z,-1.20
2019-01-31T17:51:29.812Z,-1.20
2019-01-31T17:54:01.748Z,-1.10
2019-01-31T17:56:33.198Z,-1.10
2019-01-31T17:59:04.828Z,-1.10
2019-01-31T18:01:36.454Z,-1.10
2019-01-31T18:04:07.987Z,-1.00
2019-01-31T18:06:41.370Z,-0.90
2019-01-31T18:09:12.865Z,-1.00
2019-01-31T18:11:44.293Z,-1.00
2019-01-31T18:14:16.518Z,-1.00
2019-01-31T18:16:48.099Z,-1.00
2019-01-31T18:19:20.726Z,-1.00
2019-01-31T18:21:53.605Z,-1.00
2019-01-31T18:24:26.746Z,-1.10
2019-01-31T18:27:00.084Z,-1.10
2019-01-31T18:29:33.148Z,-1.10
2019-01-31T18:32:06.043Z,-1.10
2019-01-31T18:34:37.906Z,-1.10
2019-01-31T18:37:09.735Z,-1.20
2019-01-31T18:39:41.345Z,-1.20
2019-01-31T18:42:14.444Z,-1.10
2019-01-31T18:44:46.971Z,-1.10
2019-01-31T18:47:19.846Z,-1.10
2019-01-31T18:49:52.072Z,-1.10
2019-01-31T18:52:23.657Z,-1.10
2019-01-31T18:54:55.323Z,-1.00
2019-01-31T18:57:27.040Z,-1.10
2019-01-31T18:59:59.711Z,-1.10
2019-01-31T19:02:32.602Z,-1.00
2019-01-31T19:05:05.490Z,-1.00
2019-01-31T19:07:37.354Z,-1.00
2019-01-31T19:10:10.049Z,-1.00
2019-01-31T19:12:42.809Z,-0.90
2019-01-31T19:15:16.387Z,-0.90
2019-01-31T19:17:48.166Z,-0.90
2019-01-31T19:20:24.665Z,-0.90
2019-01-31T19:22:58.233Z,-0.90
2019-01-31T19:25:32.135Z,-0.90
2019-01-31T19:28:03.700Z,-0.90
2019-01-31T19:30:37.138Z,-0.90
2019-01-31T19:33:09.735Z,-0.90
2019-01-31T19:35:44.580Z,-0.90
2019-01-31T19:38:16.497Z,-0.90
2019-01-31T19:40:48.632Z,-0.80
2019-01-31T19:43:21.273Z,-0.80
2019-01-31T19:45:54.197Z,-0.70
2019-01-31T19:48:28.011Z,-0.70
2019-01-31T19:51:00.373Z,-0.70
2019-01-31T19:53:34.798Z,-0.60
2019-01-31T19:56:08.520Z,-0.60
2019-01-31T19:58:40.070Z,-0.60
2019-01-31T20:01:11.892Z,-0.60
2019-01-31T20:03:43.638Z,-0.60
2019-01-31T20:06:15.188Z,-0.60
2019-01-31T20:08:47.329Z,-0.60
2019-01-31T20:11:22.801Z,-0.60
2019-01-31T20:13:55.516Z,-0.60
2019-01-31T20:16:29.180Z,-0.60
2019-01-31T20:19:00.811Z,-0.60
2019-01-31T20:21:32.309Z,-0.60
2019-01-31T20:24:04.583Z,-0.60
2019-01-31T20:26:36.349Z,-0.60
2019-01-31T20:29:08.304Z,-0.60
2019-01-31T20:31:39.770Z,-0.60
2019-01-31T20:34:11.412Z,-0.50
2019-01-31T20:36:44.370Z,-0.60
2019-01-31T20:39:15.799Z,-0.60
2019-01-31T20:41:54.214Z,-0.50
2019-01-31T20:44:21.221Z,-0.50
2019-01-31T20:46:53.332Z,-0.60
2019-01-31T20:49:25.875Z,-0.50
2019-01-31T20:51:57.709Z,-0.50
2019-01-31T20:54:29.361Z,-0.50
2019-01-31T20:57:01.176Z,-0.50
2019-01-31T20:59:32.697Z,-0.50
2019-01-31T21:02:04.702Z,-0.50
2019-01-31T21:04:39.182Z,-0.50
2019-01-31T21:07:11.102Z,-0.50
2019-01-31T21:09:43.108Z,-0.50
2019-01-31T21:12:14.987Z,-0.50
2019-01-31T21:14:47.050Z,-0.50
2019-01-31T21:17:19.604Z,-0.50
2019-01-31T21:19:56.531Z,-0.50
2019-01-31T21:22:30.695Z,-0.50
2019-01-31T21:25:04.306Z,-0.40
2019-01-31T21:27:36.420Z,-0.40
2019-01-31T21:30:11.841Z,-0.40
2019-01-31T21:32:44.199Z,-0.40
2019-01-31T21:35:17.710Z,-0.40
2019-01-31T21:37:50.080Z,-0.40
2019-01-31T21:40:22.155Z,-0.40
2019-01-31T21:42:54.046Z,-0.40
2019-01-31T21:45:26.482Z,-0.30
2019-01-31T21:47:59.828Z,-0.30
2019-01-31T21:50:35.619Z,-0.30
2019-01-31T21:53:09.264Z,-0.30
2019-01-31T21:55:40.953Z,-0.30
2019-01-31T21:58:12.300Z,-0.30
2019-01-31T22:00:43.963Z,-0.30
2019-01-31T22:03:15.420Z,-0.30
2019-01-31T22:05:47.139Z,-0.20
2019-01-31T22:08:19.466Z,-0.30
2019-01-31T22:10:51.406Z,-0.30
2019-01-31T22:13:23.804Z,-0.20
2019-01-31T22:15:56.016Z,-0.20
2019-01-31T22:18:28.123Z,-0.20
2019-01-31T22:20:59.628Z,-0.20
2019-01-31T22:23:32.145Z,-0.20
2019-01-31T22:26:03.680Z,-0.20
2019-01-31T22:28:35.347Z,-0.20
2019-01-31T22:31:07.376Z,-0.10
2019-01-31T22:33:40.263Z,-0.10
2019-01-31T22:36:12.715Z,-0.10
2019-01-31T22:38:45.627Z,-0.10
2019-01-31T22:41:17.873Z,-0.10
2019-01-31T22:43:49.528Z,-0.10
2019-01-31T22:46:21.372Z,-0.10
2019-01-31T22:48:52.926Z,-0.10
2019-01-31T22:51:26.291Z,-0.10
2019-01-31T22:53:57.995Z,-0.10
2019-01-31T22:56:29.431Z,-0.10
2019-01-31T22:59:00.904Z,-0.10
2019-01-31T23:01:43.508Z,-0.10
2019-01-31T23:04:14.954Z,-0.10
2019-01-31T23:06:46.661Z,-0.10
2019-01-31T23:09:18.471Z,-0.10
2019-01-31T23:11:50.512Z,-0.10
2019-01-31T23:14:22.614Z,-0.10
2019-01-31T23:16:54.015Z,-0.10
2019-01-31T23:19:25.529Z,-0.10
2019-01-31T23:21:57.457Z,-0.10
2019-01-31T23:24:29.148Z,-0.10
2019-01-31T23:27:01.976Z,-0.10
2019-01-31T23:29:33.428Z,-0.10
2019-01-31T23:32:06.573Z,-0.10
2019-01-31T23:34:38.544Z,-0.10
2019-01-31T23:37:10.124Z,-0.10
2019-01-31T23:39:41.826Z,-0.10
2019-01-31T23:42:13.428Z,-0.10
2019-01-31T23:44:45.060Z,-0.10
2019-01-31T23:47:19.468Z,-0.10
2019-01-31T23:49:50.896Z,-0.10
2019-01-31T23:52:22.706Z,-0.10
2019-01-31T23:54:54.432Z,-0.10
2019-01-31T23:57:26.235Z,-0.10
2019-01-31T23:59:59.385Z,-0.10
